Wendover, UT

1:03 AM MDT on October 25, 2014 (GMT -0600)
Wendover | Change Station
CLOSE
Current Station
Airport
Location: Wendover,
Elevation: 4239 ft
Nearby Weather Stations
Active Advisory: Wind Advisory Active Notice: Record Report

Elev 4239 ft 40.72 °N, 114.03 °W | Updated 8 minutes ago

Clear
Clear
48 °F
Feels Like 48 °F
N
4
Wind Variable Wind from WSW

Today
High -- | Low -- °F
--% Chance of Precip.
Yesterday
High -- | Low -- °F
Precip. -- in
7:58 AM 6:41 PM
New Moon, 2% visible
Pressure 30.09 in
Visibility 10.0 miles
Clouds Clear
Dew Point 34 °F
Humidity 58%
Rainfall 0.00 in
Snow Depth Not available.
UV 0 out of 12
Pollen 1.80 out of 12
PM2.5 Good
Flu Activity Sporadic
METAR KENV 250655Z AUTO 24003KT 10SM CLR 09/01 A3009 RMK AO1

More Conditions Fewer Conditions

Pressure 30.09 in
Visibility 10.0 miles
Clouds Clear
Dew Point 34 °F
Humidity 58%
Rainfall 0.00 in
Snow Depth Not available.
UV 0 out of 12
Pollen 1.80 out of 12
PM2.5 Good
Flu Activity Sporadic
METAR KENV 250655Z AUTO 24003KT 10SM CLR 09/01 A3009 RMK AO1

More Conditions Fewer Conditions

10-Day Weather Forecast

Almanac

Astronomy

Oct. 25, 2014 Rise Set
Actual Time 7:58 AM MDT 6:41 PM MDT
Civil Twilight 7:30 AM MDT 7:09 PM MDT
Nautical Twilight 6:58 AM MDT 7:41 PM MDT
Astronomical Twilight 6:26 AM MDT 8:12 PM MDT
Moon 9:41 AM MDT 8:06 PM MDT
Length of Visible Light 11h 38m
Length of Day
10h 42m
Tomorrow will be 2m 29s shorter.
New Moon, 2% of the Moon is Illuminated
Today
New Moon
Oct 30
First Quarter
Nov 6
Full
Nov 14
Last Quarter
Nov 22
New

Today's Extremes

State Highs State Lows

Community

WunderPhotos

Upload Photos

1,764,789 photos uploaded!

Nearby

Air Quality

  Air Quality AQ Index Pollutant
Yesterday Good
PM2.5
Current Good
PM2.5

Snow Depth

Station Depth Elevation
Rocky Basin-Settlement 0 in 8900 ft
Dry Fork 0 in 7160 ft
Ben Lomond Peak 0 in 8000 ft
Parrish Creek 0 in 7740 ft
Farmington 0 in 8000 ft

Earthquake Activity

City Distance Mag. Time & Date
No recent earthquake activity has been reported nearby.
Minimum magnitude displayed is 2.5.

Coastal Water Temperatures

Place Temperature
No Stations Reporting

Nearby Weather Stations